Airfield :
LOGIN :

Register | Disclaimer

   EN    FR    IT 

 










Legend :    VFR   Marginal VFR   IFR   Intensive IFR   Very Intensive IFR
Visi :
Ceiling :
>= 8 km
>= 3000ft
5 to 8 km
1000 to 3000 ft
1500m to 5 km
500 to 1000 ft
800 to 1500m
200 to 500 ft
< 800m
< 200 ft
Symbols :   Thunderstorms  Fog  Heavy snow  Heavy precipitations  Wind > 20 kt
SIGMETs :     Misc.  Thunderstorms  Icing  Turbulence  Mountain Waves  Volcanic Ashes







- Airport Elevation : 665 ft
- IATA code : NOC


EIKN - Connaught / Knock- Ireland West

CURRENT METAR :
  • 301630Z 13020KT 090V170 9999 SCT020 BKN027 BKN250 12/05 Q0995 NOSIG

EXPIRED METARs :
  • 301600Z 12020G30KT 090V160 9999 SCT020 SCT035 BKN250 12/05 Q0994 NOSIG
  • 301530Z 12017KT 090V150 9999 SCT020 BKN032 11/06 Q0995 NOSIG
  • 301500Z 12019KT 090V150 9999 FEW020 BKN023 12/06 Q0994 NOSIG
  • 301430Z 13020G33KT 100V170 9999 SCT020 BKN024 12/05 Q0994 NOSIG
  • 301400Z 13022G36KT 100V180 9999 SCT020 BKN024 11/05 Q0994 NOSIG

TAF TAF EIKN
Valid from the 30 at 12:00 until the 01 at 12:00 UTC


301100Z 3012/0112 12018G30KT 9999 FEW008 BKN025
TEMPO 3012/0109 6000 -RA BKN008
BECMG 3015/3018 12012KT
BECMG 3019/3021 08007KT
PROB40
TEMPO 0102/0106 0500 FG BKN001
No reported NOTAMs for that airfield.
3 SIGMETs reported for the Shannon FIR (EISN) :
 
Severe turbulence
EISN SIGMET 04 VALID 301430/301830 EINN
EISN SHANNON FIR SEV TURB FCST WI N5413 W01300 - N5200 W01125 - N5125 W00955 - N5100 W00955 - N5100 W01230 - N5406 W01400 - N5413 W01300 SFC/FL060 MOV E AT 5KT WKN=
SIGMET 02 cancelation
EISN SIGMET 03 301430/301820 EINN
EISN SHANNON FIR CNL SIGMET 02 301420/301820=
SIGMET 02  CANCELED :
Severe turbulence
EISN SIGMET 02 VALID 301420/301820 EINN
EISN SHANNON FIR SEV TURB FCST WI N5413 W01300 - N5130 W01125 - N5125 W00955 - N5100 W00955 - N5100 W01200 - N5413 W01300 SFC/FL060 MOV E AT 5KT WKN=



MET'MAP, your aeronautical weather chart ! - Copyright ORBIFLY December 2007 - Disclaimer

ORBIFLY MET'MAP TEAM :

Programming & Development : Alexandra Zaïnal
Concept & Development : Baudouin d'Aumeries
Co-Development & Prog : Marc-Olivier Méhu
Technical & hardware support : Manuel Goepfert

Contact : metmap@orbifly.com




SOURCES & CREDITS :

   NOAA